sensor_id;sensor_type;location;lat;lon;timestamp;temperature;humidity
30097;DHT22;16915;51.466;3.610;2023-02-19T00:02:23;9.10;99.90
30097;DHT22;16915;51.466;3.610;2023-02-19T00:04:48;9.10;99.90
30097;DHT22;16915;51.466;3.610;2023-02-19T00:07:14;9.10;99.90
30097;DHT22;16915;51.466;3.610;2023-02-19T00:09:39;9.10;99.90
30097;DHT22;16915;51.466;3.610;2023-02-19T00:12:05;9.10;99.90
30097;DHT22;16915;51.466;3.610;2023-02-19T00:14:30;9.10;99.90
30097;DHT22;16915;51.466;3.610;2023-02-19T00:16:56;9.10;99.90
30097;DHT22;16915;51.466;3.610;2023-02-19T00:19:21;9.10;99.90
30097;DHT22;16915;51.466;3.610;2023-02-19T00:21:50;9.10;99.90
30097;DHT22;16915;51.466;3.610;2023-02-19T00:24:16;9.10;99.90
30097;DHT22;16915;51.466;3.610;2023-02-19T00:26:43;9.20;99.90
30097;DHT22;16915;51.466;3.610;2023-02-19T00:29:27;9.20;99.90
30097;DHT22;16915;51.466;3.610;2023-02-19T00:31:53;9.10;99.90
30097;DHT22;16915;51.466;3.610;2023-02-19T00:34:19;9.20;99.90
30097;DHT22;16915;51.466;3.610;2023-02-19T00:36:44;9.20;99.90
30097;DHT22;16915;51.466;3.610;2023-02-19T00:39:13;9.20;99.90
30097;DHT22;16915;51.466;3.610;2023-02-19T00:41:39;9.20;99.90
30097;DHT22;16915;51.466;3.610;2023-02-19T00:44:06;9.10;99.90
30097;DHT22;16915;51.466;3.610;2023-02-19T00:46:37;9.10;99.90
30097;DHT22;16915;51.466;3.610;2023-02-19T00:49:05;9.10;99.90
30097;DHT22;16915;51.466;3.610;2023-02-19T00:51:33;9.10;99.90
30097;DHT22;16915;51.466;3.610;2023-02-19T00:53:59;9.10;99.90
30097;DHT22;16915;51.466;3.610;2023-02-19T00:56:25;9.10;99.90
30097;DHT22;16915;51.466;3.610;2023-02-19T00:58:51;9.10;99.90
30097;DHT22;16915;51.466;3.610;2023-02-19T01:01:18;9.10;99.90
30097;DHT22;16915;51.466;3.610;2023-02-19T01:03:44;9.10;99.90
30097;DHT22;16915;51.466;3.610;2023-02-19T01:06:12;9.10;99.90
30097;DHT22;16915;51.466;3.610;2023-02-19T01:08:39;9.10;99.90
30097;DHT22;16915;51.466;3.610;2023-02-19T01:11:07;9.10;99.90
30097;DHT22;16915;51.466;3.610;2023-02-19T01:13:33;9.10;99.90
30097;DHT22;16915;51.466;3.610;2023-02-19T01:16:09;9.10;99.90
30097;DHT22;16915;51.466;3.610;2023-02-19T01:18:35;9.10;99.90
30097;DHT22;16915;51.466;3.610;2023-02-19T01:21:05;9.10;99.90
30097;DHT22;16915;51.466;3.610;2023-02-19T01:23:31;9.00;99.90
30097;DHT22;16915;51.466;3.610;2023-02-19T01:25:57;9.00;99.90
30097;DHT22;16915;51.466;3.610;2023-02-19T01:28:22;9.00;99.90
30097;DHT22;16915;51.466;3.610;2023-02-19T01:30:48;9.00;99.90
30097;DHT22;16915;51.466;3.610;2023-02-19T01:33:14;9.00;99.90
30097;DHT22;16915;51.466;3.610;2023-02-19T01:35:39;9.00;99.90
30097;DHT22;16915;51.466;3.610;2023-02-19T01:38:05;9.00;99.90
30097;DHT22;16915;51.466;3.610;2023-02-19T01:40:32;9.00;99.90
30097;DHT22;16915;51.466;3.610;2023-02-19T01:42:58;9.00;99.90
30097;DHT22;16915;51.466;3.610;2023-02-19T01:48:05;9.00;99.90
30097;DHT22;16915;51.466;3.610;2023-02-19T01:50:35;9.00;99.90
30097;DHT22;16915;51.466;3.610;2023-02-19T01:53:03;9.00;99.90
30097;DHT22;16915;51.466;3.610;2023-02-19T01:55:31;9.00;99.90
30097;DHT22;16915;51.466;3.610;2023-02-19T01:57:57;9.00;99.90
30097;DHT22;16915;51.466;3.610;2023-02-19T02:00:23;9.10;99.90
30097;DHT22;16915;51.466;3.610;2023-02-19T02:02:51;9.00;99.90
30097;DHT22;16915;51.466;3.610;2023-02-19T02:08:13;9.10;99.90
30097;DHT22;16915;51.466;3.610;2023-02-19T02:10:58;9.00;99.90
30097;DHT22;16915;51.466;3.610;2023-02-19T02:13:23;9.00;99.90
30097;DHT22;16915;51.466;3.610;2023-02-19T02:22:04;9.00;99.90
30097;DHT22;16915;51.466;3.610;2023-02-19T02:32:42;9.00;99.90
30097;DHT22;16915;51.466;3.610;2023-02-19T02:35:23;9.00;99.90
30097;DHT22;16915;51.466;3.610;2023-02-19T02:37:50;9.00;99.90
30097;DHT22;16915;51.466;3.610;2023-02-19T02:40:17;9.10;99.90
30097;DHT22;16915;51.466;3.610;2023-02-19T02:42:44;9.10;99.90
30097;DHT22;16915;51.466;3.610;2023-02-19T02:45:25;9.10;99.90
30097;DHT22;16915;51.466;3.610;2023-02-19T02:51:05;9.10;99.90
30097;DHT22;16915;51.466;3.610;2023-02-19T02:56:30;9.20;99.90
30097;DHT22;16915;51.466;3.610;2023-02-19T02:58:57;9.20;99.90
30097;DHT22;16915;51.466;3.610;2023-02-19T03:01:27;9.20;99.90
30097;DHT22;16915;51.466;3.610;2023-02-19T03:07:46;9.20;99.90
30097;DHT22;16915;51.466;3.610;2023-02-19T03:10:21;9.20;99.90
30097;DHT22;16915;51.466;3.610;2023-02-19T03:12:50;9.20;99.90
30097;DHT22;16915;51.466;3.610;2023-02-19T03:15:41;9.30;99.90
30097;DHT22;16915;51.466;3.610;2023-02-19T03:18:29;9.30;99.90
30097;DHT22;16915;51.466;3.610;2023-02-19T03:21:16;9.30;99.90
30097;DHT22;16915;51.466;3.610;2023-02-19T03:23:44;9.30;99.90
30097;DHT22;16915;51.466;3.610;2023-02-19T03:26:32;9.20;99.90
30097;DHT22;16915;51.466;3.610;2023-02-19T03:28:59;9.20;99.90
30097;DHT22;16915;51.466;3.610;2023-02-19T03:31:45;9.20;99.90
30097;DHT22;16915;51.466;3.610;2023-02-19T03:34:16;9.20;99.90
30097;DHT22;16915;51.466;3.610;2023-02-19T03:36:51;9.20;99.90
30097;DHT22;16915;51.466;3.610;2023-02-19T03:39:20;9.20;99.90
30097;DHT22;16915;51.466;3.610;2023-02-19T03:47:40;9.20;99.90
30097;DHT22;16915;51.466;3.610;2023-02-19T03:55:27;9.20;99.90
30097;DHT22;16915;51.466;3.610;2023-02-19T04:00:43;9.20;99.90
30097;DHT22;16915;51.466;3.610;2023-02-19T04:06:12;9.20;99.90
30097;DHT22;16915;51.466;3.610;2023-02-19T04:08:41;9.20;99.90
30097;DHT22;16915;51.466;3.610;2023-02-19T04:11:09;9.20;99.90
30097;DHT22;16915;51.466;3.610;2023-02-19T04:13:40;9.20;99.90
30097;DHT22;16915;51.466;3.610;2023-02-19T04:16:10;9.20;99.90
30097;DHT22;16915;51.466;3.610;2023-02-19T04:18:40;9.20;99.90
30097;DHT22;16915;51.466;3.610;2023-02-19T04:21:08;9.20;99.90
30097;DHT22;16915;51.466;3.610;2023-02-19T04:23:38;9.20;99.90
30097;DHT22;16915;51.466;3.610;2023-02-19T04:26:05;9.20;99.90
30097;DHT22;16915;51.466;3.610;2023-02-19T04:28:33;9.20;99.90
30097;DHT22;16915;51.466;3.610;2023-02-19T04:30:58;9.20;99.90
30097;DHT22;16915;51.466;3.610;2023-02-19T04:33:24;9.20;99.90
30097;DHT22;16915;51.466;3.610;2023-02-19T04:35:50;9.20;99.90
30097;DHT22;16915;51.466;3.610;2023-02-19T04:38:15;9.20;99.90
30097;DHT22;16915;51.466;3.610;2023-02-19T04:40:41;9.20;99.90
30097;DHT22;16915;51.466;3.610;2023-02-19T04:43:06;9.20;99.90
30097;DHT22;16915;51.466;3.610;2023-02-19T04:45:32;9.20;99.90
30097;DHT22;16915;51.466;3.610;2023-02-19T04:47:57;9.20;99.90
30097;DHT22;16915;51.466;3.610;2023-02-19T04:50:24;9.10;99.90
30097;DHT22;16915;51.466;3.610;2023-02-19T04:52:49;9.10;99.90
30097;DHT22;16915;51.466;3.610;2023-02-19T04:55:15;9.10;99.90
30097;DHT22;16915;51.466;3.610;2023-02-19T04:57:41;9.10;99.90
30097;DHT22;16915;51.466;3.610;2023-02-19T05:00:07;9.10;99.90
30097;DHT22;16915;51.466;3.610;2023-02-19T05:02:33;9.10;99.90
30097;DHT22;16915;51.466;3.610;2023-02-19T05:04:59;9.00;99.90
30097;DHT22;16915;51.466;3.610;2023-02-19T05:07:24;9.00;99.90
30097;DHT22;16915;51.466;3.610;2023-02-19T05:09:50;9.00;99.90
30097;DHT22;16915;51.466;3.610;2023-02-19T05:12:15;9.00;99.90
30097;DHT22;16915;51.466;3.610;2023-02-19T05:14:41;8.90;99.90
30097;DHT22;16915;51.466;3.610;2023-02-19T05:17:06;8.90;99.90
30097;DHT22;16915;51.466;3.610;2023-02-19T05:19:32;8.80;99.90
30097;DHT22;16915;51.466;3.610;2023-02-19T05:21:57;8.80;99.90
30097;DHT22;16915;51.466;3.610;2023-02-19T05:24:23;8.80;99.90
30097;DHT22;16915;51.466;3.610;2023-02-19T05:26:49;8.80;99.90
30097;DHT22;16915;51.466;3.610;2023-02-19T05:29:15;8.80;99.90
30097;DHT22;16915;51.466;3.610;2023-02-19T05:31:40;8.80;99.90
30097;DHT22;16915;51.466;3.610;2023-02-19T05:34:06;8.80;99.90
30097;DHT22;16915;51.466;3.610;2023-02-19T05:36:32;8.80;99.90
30097;DHT22;16915;51.466;3.610;2023-02-19T05:38:57;8.80;99.90
30097;DHT22;16915;51.466;3.610;2023-02-19T05:41:25;8.80;99.90
30097;DHT22;16915;51.466;3.610;2023-02-19T05:43:51;8.80;99.90
30097;DHT22;16915;51.466;3.610;2023-02-19T05:46:19;8.80;99.90
30097;DHT22;16915;51.466;3.610;2023-02-19T05:48:46;8.90;99.90
30097;DHT22;16915;51.466;3.610;2023-02-19T05:51:15;8.90;99.90
30097;DHT22;16915;51.466;3.610;2023-02-19T05:53:42;8.90;99.90
30097;DHT22;16915;51.466;3.610;2023-02-19T05:56:28;8.90;99.90
30097;DHT22;16915;51.466;3.610;2023-02-19T05:58:55;9.00;99.90
30097;DHT22;16915;51.466;3.610;2023-02-19T06:01:23;9.00;99.90
30097;DHT22;16915;51.466;3.610;2023-02-19T06:03:48;9.00;99.90
30097;DHT22;16915;51.466;3.610;2023-02-19T06:06:15;9.00;99.90
30097;DHT22;16915;51.466;3.610;2023-02-19T06:08:41;9.10;99.90
30097;DHT22;16915;51.466;3.610;2023-02-19T06:11:07;9.00;99.90
30097;DHT22;16915;51.466;3.610;2023-02-19T06:13:33;9.00;99.90
30097;DHT22;16915;51.466;3.610;2023-02-19T06:16:02;9.00;99.90
30097;DHT22;16915;51.466;3.610;2023-02-19T06:18:27;9.00;99.90
30097;DHT22;16915;51.466;3.610;2023-02-19T06:20:53;9.00;99.90
30097;DHT22;16915;51.466;3.610;2023-02-19T06:23:18;9.00;99.90
30097;DHT22;16915;51.466;3.610;2023-02-19T06:25:44;9.00;99.90
30097;DHT22;16915;51.466;3.610;2023-02-19T06:28:10;9.00;99.90
30097;DHT22;16915;51.466;3.610;2023-02-19T06:30:36;9.00;99.90
30097;DHT22;16915;51.466;3.610;2023-02-19T06:33:01;9.00;99.90
30097;DHT22;16915;51.466;3.610;2023-02-19T06:35:27;9.00;99.90
30097;DHT22;16915;51.466;3.610;2023-02-19T06:37:53;9.00;99.90
30097;DHT22;16915;51.466;3.610;2023-02-19T06:40:18;8.90;99.90
30097;DHT22;16915;51.466;3.610;2023-02-19T06:42:44;8.90;99.90
30097;DHT22;16915;51.466;3.610;2023-02-19T06:45:10;8.90;99.90
30097;DHT22;16915;51.466;3.610;2023-02-19T06:47:35;8.80;99.90
30097;DHT22;16915;51.466;3.610;2023-02-19T06:50:01;8.70;99.90
30097;DHT22;16915;51.466;3.610;2023-02-19T06:52:26;8.60;99.90
30097;DHT22;16915;51.466;3.610;2023-02-19T06:54:52;8.60;99.90
30097;DHT22;16915;51.466;3.610;2023-02-19T06:57:18;8.60;99.90
30097;DHT22;16915;51.466;3.610;2023-02-19T06:59:44;8.60;99.90
30097;DHT22;16915;51.466;3.610;2023-02-19T07:02:11;8.60;99.90
30097;DHT22;16915;51.466;3.610;2023-02-19T07:04:37;8.60;99.90
30097;DHT22;16915;51.466;3.610;2023-02-19T07:07:03;8.60;99.90
30097;DHT22;16915;51.466;3.610;2023-02-19T07:09:29;8.60;99.90
30097;DHT22;16915;51.466;3.610;2023-02-19T07:11:54;8.60;99.90
30097;DHT22;16915;51.466;3.610;2023-02-19T07:14:20;8.70;99.90
30097;DHT22;16915;51.466;3.610;2023-02-19T07:16:46;8.70;99.90
30097;DHT22;16915;51.466;3.610;2023-02-19T07:19:13;8.70;99.90
30097;DHT22;16915;51.466;3.610;2023-02-19T07:21:40;8.70;99.90
30097;DHT22;16915;51.466;3.610;2023-02-19T07:24:07;8.70;99.90
30097;DHT22;16915;51.466;3.610;2023-02-19T07:26:32;8.70;99.90
30097;DHT22;16915;51.466;3.610;2023-02-19T07:28:58;8.70;99.90
30097;DHT22;16915;51.466;3.610;2023-02-19T07:31:24;8.70;99.90
30097;DHT22;16915;51.466;3.610;2023-02-19T07:33:50;8.70;99.90
30097;DHT22;16915;51.466;3.610;2023-02-19T07:36:18;8.60;99.90
30097;DHT22;16915;51.466;3.610;2023-02-19T07:38:44;8.70;99.90
30097;DHT22;16915;51.466;3.610;2023-02-19T07:41:09;8.70;99.90
30097;DHT22;16915;51.466;3.610;2023-02-19T07:43:36;8.80;99.90
30097;DHT22;16915;51.466;3.610;2023-02-19T07:46:07;8.90;99.90
30097;DHT22;16915;51.466;3.610;2023-02-19T07:48:34;9.00;99.90
30097;DHT22;16915;51.466;3.610;2023-02-19T07:51:01;9.10;99.90
30097;DHT22;16915;51.466;3.610;2023-02-19T07:53:27;9.20;99.90
30097;DHT22;16915;51.466;3.610;2023-02-19T07:55:57;9.20;99.90
30097;DHT22;16915;51.466;3.610;2023-02-19T07:58:23;9.30;99.90
30097;DHT22;16915;51.466;3.610;2023-02-19T08:00:48;9.30;99.90
30097;DHT22;16915;51.466;3.610;2023-02-19T08:03:14;9.30;99.90
30097;DHT22;16915;51.466;3.610;2023-02-19T08:05:41;9.40;99.90
30097;DHT22;16915;51.466;3.610;2023-02-19T08:08:08;9.40;99.90
30097;DHT22;16915;51.466;3.610;2023-02-19T08:10:34;9.50;99.90
30097;DHT22;16915;51.466;3.610;2023-02-19T08:13:19;9.50;99.90
30097;DHT22;16915;51.466;3.610;2023-02-19T08:18:25;9.60;99.90
30097;DHT22;16915;51.466;3.610;2023-02-19T08:20:52;9.70;99.90
30097;DHT22;16915;51.466;3.610;2023-02-19T08:23:17;9.70;99.90
30097;DHT22;16915;51.466;3.610;2023-02-19T08:25:45;9.70;99.90
30097;DHT22;16915;51.466;3.610;2023-02-19T08:28:11;9.60;99.90
30097;DHT22;16915;51.466;3.610;2023-02-19T08:30:38;9.70;99.90
30097;DHT22;16915;51.466;3.610;2023-02-19T08:33:05;9.70;99.90
30097;DHT22;16915;51.466;3.610;2023-02-19T08:35:31;9.70;99.90
30097;DHT22;16915;51.466;3.610;2023-02-19T08:37:59;9.70;99.90
30097;DHT22;16915;51.466;3.610;2023-02-19T08:40:25;9.70;99.90
30097;DHT22;16915;51.466;3.610;2023-02-19T08:42:51;9.80;99.90
30097;DHT22;16915;51.466;3.610;2023-02-19T08:45:17;9.90;99.90
30097;DHT22;16915;51.466;3.610;2023-02-19T08:47:43;9.90;99.90
30097;DHT22;16915;51.466;3.610;2023-02-19T08:50:09;10.00;99.90
30097;DHT22;16915;51.466;3.610;2023-02-19T08:52:34;10.00;99.90
30097;DHT22;16915;51.466;3.610;2023-02-19T08:55:01;10.00;99.90
30097;DHT22;16915;51.466;3.610;2023-02-19T08:57:27;10.00;99.90
30097;DHT22;16915;51.466;3.610;2023-02-19T08:59:54;9.90;99.90
30097;DHT22;16915;51.466;3.610;2023-02-19T09:02:20;9.90;99.90
30097;DHT22;16915;51.466;3.610;2023-02-19T09:04:46;10.00;99.90
30097;DHT22;16915;51.466;3.610;2023-02-19T09:07:11;10.00;99.90
30097;DHT22;16915;51.466;3.610;2023-02-19T09:09:37;10.00;99.90
30097;DHT22;16915;51.466;3.610;2023-02-19T09:12:04;10.10;99.90
30097;DHT22;16915;51.466;3.610;2023-02-19T09:14:31;10.20;99.90
30097;DHT22;16915;51.466;3.610;2023-02-19T09:16:57;10.30;99.90
30097;DHT22;16915;51.466;3.610;2023-02-19T09:19:23;10.40;99.90
30097;DHT22;16915;51.466;3.610;2023-02-19T09:21:48;10.50;99.90
30097;DHT22;16915;51.466;3.610;2023-02-19T09:24:14;10.60;99.90
30097;DHT22;16915;51.466;3.610;2023-02-19T09:26:39;10.70;99.90
30097;DHT22;16915;51.466;3.610;2023-02-19T09:29:05;10.70;99.90
30097;DHT22;16915;51.466;3.610;2023-02-19T09:31:30;10.70;99.90
30097;DHT22;16915;51.466;3.610;2023-02-19T09:33:56;10.70;99.90
30097;DHT22;16915;51.466;3.610;2023-02-19T09:36:22;10.70;99.90
30097;DHT22;16915;51.466;3.610;2023-02-19T09:38:47;10.70;99.90
30097;DHT22;16915;51.466;3.610;2023-02-19T09:41:17;10.70;99.90
30097;DHT22;16915;51.466;3.610;2023-02-19T09:43:44;10.70;99.90
30097;DHT22;16915;51.466;3.610;2023-02-19T09:46:31;10.70;99.90
30097;DHT22;16915;51.466;3.610;2023-02-19T09:49:12;10.80;99.90
30097;DHT22;16915;51.466;3.610;2023-02-19T09:51:40;11.00;99.90
30097;DHT22;16915;51.466;3.610;2023-02-19T09:54:13;11.10;99.90
30097;DHT22;16915;51.466;3.610;2023-02-19T09:56:42;11.10;99.90
30097;DHT22;16915;51.466;3.610;2023-02-19T09:59:18;11.10;99.90
30097;DHT22;16915;51.466;3.610;2023-02-19T10:01:47;11.00;99.90
30097;DHT22;16915;51.466;3.610;2023-02-19T10:04:13;10.90;99.90
30097;DHT22;16915;51.466;3.610;2023-02-19T10:06:39;10.90;99.90
30097;DHT22;16915;51.466;3.610;2023-02-19T10:09:21;10.80;99.90
30097;DHT22;16915;51.466;3.610;2023-02-19T10:11:48;10.70;99.90
30097;DHT22;16915;51.466;3.610;2023-02-19T10:14:22;10.70;99.90
30097;DHT22;16915;51.466;3.610;2023-02-19T10:16:51;10.70;99.90
30097;DHT22;16915;51.466;3.610;2023-02-19T10:19:17;10.60;99.90
30097;DHT22;16915;51.466;3.610;2023-02-19T10:21:43;10.60;99.90
30097;DHT22;16915;51.466;3.610;2023-02-19T10:24:19;10.60;99.90
30097;DHT22;16915;51.466;3.610;2023-02-19T10:26:45;10.60;99.90
30097;DHT22;16915;51.466;3.610;2023-02-19T10:29:10;10.60;99.90
30097;DHT22;16915;51.466;3.610;2023-02-19T10:31:36;10.70;99.90
30097;DHT22;16915;51.466;3.610;2023-02-19T10:34:02;10.70;99.90
30097;DHT22;16915;51.466;3.610;2023-02-19T10:36:30;10.80;99.90
30097;DHT22;16915;51.466;3.610;2023-02-19T10:38:57;10.80;99.90
30097;DHT22;16915;51.466;3.610;2023-02-19T10:41:24;10.80;99.90
30097;DHT22;16915;51.466;3.610;2023-02-19T10:44:13;11.00;99.90
30097;DHT22;16915;51.466;3.610;2023-02-19T10:46:43;11.10;99.90
30097;DHT22;16915;51.466;3.610;2023-02-19T10:49:36;11.40;99.90
30097;DHT22;16915;51.466;3.610;2023-02-19T10:54:43;11.70;99.90
30097;DHT22;16915;51.466;3.610;2023-02-19T10:59:49;12.00;99.90
30097;DHT22;16915;51.466;3.610;2023-02-19T11:02:18;12.00;99.90
30097;DHT22;16915;51.466;3.610;2023-02-19T11:07:38;12.10;99.90
30097;DHT22;16915;51.466;3.610;2023-02-19T11:10:19;12.20;99.90
30097;DHT22;16915;51.466;3.610;2023-02-19T11:12:48;12.30;99.90
30097;DHT22;16915;51.466;3.610;2023-02-19T11:15:28;12.20;99.90
30097;DHT22;16915;51.466;3.610;2023-02-19T11:18:03;12.20;99.90
30097;DHT22;16915;51.466;3.610;2023-02-19T11:20:29;12.10;99.90
30097;DHT22;16915;51.466;3.610;2023-02-19T11:22:59;11.90;99.90
30097;DHT22;16915;51.466;3.610;2023-02-19T11:25:26;11.70;99.90
30097;DHT22;16915;51.466;3.610;2023-02-19T11:27:57;12.10;99.90
30097;DHT22;16915;51.466;3.610;2023-02-19T11:32:55;13.70;99.90
30097;DHT22;16915;51.466;3.610;2023-02-19T11:35:22;14.50;99.90
30097;DHT22;16915;51.466;3.610;2023-02-19T11:37:58;15.20;99.90
30097;DHT22;16915;51.466;3.610;2023-02-19T11:46:01;15.50;99.90
30097;DHT22;16915;51.466;3.610;2023-02-19T11:48:43;14.70;99.90
30097;DHT22;16915;51.466;3.610;2023-02-19T11:53:45;14.10;99.90
30097;DHT22;16915;51.466;3.610;2023-02-19T12:17:27;13.80;99.90
30097;DHT22;16915;51.466;3.610;2023-02-19T12:22:48;15.80;99.90
30097;DHT22;16915;51.466;3.610;2023-02-19T12:28:22;16.60;99.90
30097;DHT22;16915;51.466;3.610;2023-02-19T12:37:04;14.10;99.90
30097;DHT22;16915;51.466;3.610;2023-02-19T12:40:11;13.30;99.90
30097;DHT22;16915;51.466;3.610;2023-02-19T12:45:46;12.40;99.90
30097;DHT22;16915;51.466;3.610;2023-02-19T12:48:30;12.20;99.90
30097;DHT22;16915;51.466;3.610;2023-02-19T12:51:03;12.30;99.90
30097;DHT22;16915;51.466;3.610;2023-02-19T12:53:45;12.20;99.90
30097;DHT22;16915;51.466;3.610;2023-02-19T12:59:10;12.30;99.90
30097;DHT22;16915;51.466;3.610;2023-02-19T13:01:46;12.40;99.90
30097;DHT22;16915;51.466;3.610;2023-02-19T13:04:16;12.70;99.90
30097;DHT22;16915;51.466;3.610;2023-02-19T13:07:06;12.70;99.90
30097;DHT22;16915;51.466;3.610;2023-02-19T13:09:38;12.70;99.90
30097;DHT22;16915;51.466;3.610;2023-02-19T13:12:47;12.80;99.90
30097;DHT22;16915;51.466;3.610;2023-02-19T13:14:57;12.70;99.90
30097;DHT22;16915;51.466;3.610;2023-02-19T13:17:50;12.40;99.90
30097;DHT22;16915;51.466;3.610;2023-02-19T13:20:32;12.20;99.90
30097;DHT22;16915;51.466;3.610;2023-02-19T13:26:41;11.80;99.90
30097;DHT22;16915;51.466;3.610;2023-02-19T13:38:09;12.10;99.90
30097;DHT22;16915;51.466;3.610;2023-02-19T13:40:40;12.30;99.90
30097;DHT22;16915;51.466;3.610;2023-02-19T13:43:28;12.80;99.90
30097;DHT22;16915;51.466;3.610;2023-02-19T13:45:59;13.60;99.90
30097;DHT22;16915;51.466;3.610;2023-02-19T13:48:30;14.00;99.90
30097;DHT22;16915;51.466;3.610;2023-02-19T14:17:43;11.10;99.90
30097;DHT22;16915;51.466;3.610;2023-02-19T14:22:45;10.70;99.90
30097;DHT22;16915;51.466;3.610;2023-02-19T14:33:53;10.80;99.90
30097;DHT22;16915;51.466;3.610;2023-02-19T14:36:30;10.80;99.90
30097;DHT22;16915;51.466;3.610;2023-02-19T14:39:01;10.90;99.90
30097;DHT22;16915;51.466;3.610;2023-02-19T14:41:30;10.90;99.90
30097;DHT22;16915;51.466;3.610;2023-02-19T14:43:58;10.90;99.90
30097;DHT22;16915;51.466;3.610;2023-02-19T14:46:38;10.90;99.90
30097;DHT22;16915;51.466;3.610;2023-02-19T14:49:14;11.00;99.90
30097;DHT22;16915;51.466;3.610;2023-02-19T14:51:43;11.10;99.90
30097;DHT22;16915;51.466;3.610;2023-02-19T14:54:16;11.20;99.90
30097;DHT22;16915;51.466;3.610;2023-02-19T14:56:46;11.10;99.90
30097;DHT22;16915;51.466;3.610;2023-02-19T15:01:38;11.10;99.90
30097;DHT22;16915;51.466;3.610;2023-02-19T15:04:05;11.00;99.90
30097;DHT22;16915;51.466;3.610;2023-02-19T15:06:33;10.70;99.90
30097;DHT22;16915;51.466;3.610;2023-02-19T15:09:03;10.50;99.90
30097;DHT22;16915;51.466;3.610;2023-02-19T15:11:30;10.30;99.90
30097;DHT22;16915;51.466;3.610;2023-02-19T15:14:02;10.20;99.90
30097;DHT22;16915;51.466;3.610;2023-02-19T15:16:28;10.10;99.90
30097;DHT22;16915;51.466;3.610;2023-02-19T15:18:56;10.00;99.90
30097;DHT22;16915;51.466;3.610;2023-02-19T15:21:29;9.90;99.90
30097;DHT22;16915;51.466;3.610;2023-02-19T15:23:59;9.90;99.90
30097;DHT22;16915;51.466;3.610;2023-02-19T15:26:35;10.00;99.90
30097;DHT22;16915;51.466;3.610;2023-02-19T15:29:04;10.00;99.90
30097;DHT22;16915;51.466;3.610;2023-02-19T15:31:33;10.20;99.90
30097;DHT22;16915;51.466;3.610;2023-02-19T15:33:59;10.20;99.90
30097;DHT22;16915;51.466;3.610;2023-02-19T15:36:33;10.20;99.90
30097;DHT22;16915;51.466;3.610;2023-02-19T15:39:00;10.20;99.90
30097;DHT22;16915;51.466;3.610;2023-02-19T15:41:30;10.20;99.90
30097;DHT22;16915;51.466;3.610;2023-02-19T15:44:47;10.30;99.90
30097;DHT22;16915;51.466;3.610;2023-02-19T15:46:46;10.30;99.90
30097;DHT22;16915;51.466;3.610;2023-02-19T15:49:27;10.30;99.90
30097;DHT22;16915;51.466;3.610;2023-02-19T15:52:04;10.20;99.90
30097;DHT22;16915;51.466;3.610;2023-02-19T15:55:25;10.10;99.90
30097;DHT22;16915;51.466;3.610;2023-02-19T15:57:49;10.00;99.90
30097;DHT22;16915;51.466;3.610;2023-02-19T16:00:29;10.00;99.90
30097;DHT22;16915;51.466;3.610;2023-02-19T16:02:57;10.00;99.90
30097;DHT22;16915;51.466;3.610;2023-02-19T16:05:25;9.90;99.90
30097;DHT22;16915;51.466;3.610;2023-02-19T16:08:06;9.70;99.90
30097;DHT22;16915;51.466;3.610;2023-02-19T16:10:31;9.50;99.90
30097;DHT22;16915;51.466;3.610;2023-02-19T16:12:58;9.40;99.90
30097;DHT22;16915;51.466;3.610;2023-02-19T16:15:26;9.40;99.90
30097;DHT22;16915;51.466;3.610;2023-02-19T16:17:52;9.30;99.90
30097;DHT22;16915;51.466;3.610;2023-02-19T16:20:25;9.30;99.90
30097;DHT22;16915;51.466;3.610;2023-02-19T16:22:56;9.30;99.90
30097;DHT22;16915;51.466;3.610;2023-02-19T16:25:31;9.30;99.90
30097;DHT22;16915;51.466;3.610;2023-02-19T16:27:58;9.30;99.90
30097;DHT22;16915;51.466;3.610;2023-02-19T16:30:31;9.30;99.90
30097;DHT22;16915;51.466;3.610;2023-02-19T16:41:33;9.30;99.90
30097;DHT22;16915;51.466;3.610;2023-02-19T16:43:58;9.30;99.90
30097;DHT22;16915;51.466;3.610;2023-02-19T16:46:31;9.20;99.90
30097;DHT22;16915;51.466;3.610;2023-02-19T16:48:56;9.20;99.90
30097;DHT22;16915;51.466;3.610;2023-02-19T16:51:26;9.10;99.90
30097;DHT22;16915;51.466;3.610;2023-02-19T16:53:52;9.10;99.90
30097;DHT22;16915;51.466;3.610;2023-02-19T16:56:20;9.10;99.90
30097;DHT22;16915;51.466;3.610;2023-02-19T16:58:48;9.10;99.90
30097;DHT22;16915;51.466;3.610;2023-02-19T17:01:14;9.10;99.90
30097;DHT22;16915;51.466;3.610;2023-02-19T17:03:40;9.10;99.90
30097;DHT22;16915;51.466;3.610;2023-02-19T17:06:06;9.10;99.90
30097;DHT22;16915;51.466;3.610;2023-02-19T17:08:37;9.00;99.90
30097;DHT22;16915;51.466;3.610;2023-02-19T17:11:05;9.00;99.90
30097;DHT22;16915;51.466;3.610;2023-02-19T17:13:31;8.90;99.90
30097;DHT22;16915;51.466;3.610;2023-02-19T17:15:57;8.80;99.90
30097;DHT22;16915;51.466;3.610;2023-02-19T17:18:23;8.60;99.90
30097;DHT22;16915;51.466;3.610;2023-02-19T17:20:55;8.50;99.90
30097;DHT22;16915;51.466;3.610;2023-02-19T17:23:22;8.40;99.90
30097;DHT22;16915;51.466;3.610;2023-02-19T17:25:47;8.30;99.90
30097;DHT22;16915;51.466;3.610;2023-02-19T17:28:13;8.20;99.90
30097;DHT22;16915;51.466;3.610;2023-02-19T17:30:39;8.20;99.90
30097;DHT22;16915;51.466;3.610;2023-02-19T17:33:04;8.10;99.90
30097;DHT22;16915;51.466;3.610;2023-02-19T17:35:30;8.00;99.90
30097;DHT22;16915;51.466;3.610;2023-02-19T17:37:55;7.90;99.90
30097;DHT22;16915;51.466;3.610;2023-02-19T17:40:24;7.90;99.90
30097;DHT22;16915;51.466;3.610;2023-02-19T17:42:50;7.80;99.90
30097;DHT22;16915;51.466;3.610;2023-02-19T17:45:16;7.70;99.90
30097;DHT22;16915;51.466;3.610;2023-02-19T17:47:42;7.70;99.90
30097;DHT22;16915;51.466;3.610;2023-02-19T17:50:16;7.60;99.90
30097;DHT22;16915;51.466;3.610;2023-02-19T17:52:42;7.60;99.90
30097;DHT22;16915;51.466;3.610;2023-02-19T17:55:08;7.60;99.90
30097;DHT22;16915;51.466;3.610;2023-02-19T17:57:34;7.60;99.90
30097;DHT22;16915;51.466;3.610;2023-02-19T18:00:00;7.60;99.90
30097;DHT22;16915;51.466;3.610;2023-02-19T18:02:25;7.50;99.90
30097;DHT22;16915;51.466;3.610;2023-02-19T18:04:51;7.40;99.90
30097;DHT22;16915;51.466;3.610;2023-02-19T18:07:17;7.40;99.90
30097;DHT22;16915;51.466;3.610;2023-02-19T18:09:42;7.40;99.90
30097;DHT22;16915;51.466;3.610;2023-02-19T18:12:08;7.40;99.90
30097;DHT22;16915;51.466;3.610;2023-02-19T18:14:34;7.30;99.90
30097;DHT22;16915;51.466;3.610;2023-02-19T18:16:59;7.30;99.90
30097;DHT22;16915;51.466;3.610;2023-02-19T18:19:25;7.30;99.90
30097;DHT22;16915;51.466;3.610;2023-02-19T18:21:51;7.20;99.90
30097;DHT22;16915;51.466;3.610;2023-02-19T18:24:16;7.20;99.90
30097;DHT22;16915;51.466;3.610;2023-02-19T18:26:43;7.20;99.90
30097;DHT22;16915;51.466;3.610;2023-02-19T18:29:09;7.20;99.90
30097;DHT22;16915;51.466;3.610;2023-02-19T18:31:35;7.30;99.90
30097;DHT22;16915;51.466;3.610;2023-02-19T18:34:02;7.20;99.90
30097;DHT22;16915;51.466;3.610;2023-02-19T18:36:28;7.20;99.90
30097;DHT22;16915;51.466;3.610;2023-02-19T18:38:54;7.20;99.90
30097;DHT22;16915;51.466;3.610;2023-02-19T18:41:19;7.20;99.90